createdAt,value
2018-07-11T00:00:38.722Z,18.8
2018-07-11T00:01:38.701Z,18.78
2018-07-11T00:02:38.711Z,18.71
2018-07-11T00:03:38.718Z,18.7
2018-07-11T00:04:38.709Z,18.7
2018-07-11T00:05:38.672Z,18.67
2018-07-11T00:06:38.699Z,18.67
2018-07-11T00:07:38.696Z,18.71
2018-07-11T00:08:38.694Z,18.72
2018-07-11T00:09:38.696Z,18.68
2018-07-11T00:10:38.692Z,18.67
2018-07-11T00:11:38.716Z,18.68
2018-07-11T00:12:38.710Z,18.63
2018-07-11T00:13:38.712Z,18.6
2018-07-11T00:14:38.715Z,18.59
2018-07-11T00:15:38.698Z,18.57
2018-07-11T00:16:38.721Z,18.57
2018-07-11T00:17:38.696Z,18.59
2018-07-11T00:18:38.734Z,18.49
2018-07-11T00:19:38.711Z,18.52
2018-07-11T00:20:38.689Z,18.54
2018-07-11T00:21:38.826Z,18.57
2018-07-11T00:22:38.721Z,18.56
2018-07-11T00:23:38.719Z,18.56
2018-07-11T00:24:38.781Z,18.53
2018-07-11T00:25:38.708Z,18.56
2018-07-11T00:26:38.843Z,18.52
2018-07-11T00:27:38.698Z,18.5
2018-07-11T00:28:38.727Z,18.53
2018-07-11T00:29:38.880Z,18.54
2018-07-11T00:30:38.708Z,18.54
2018-07-11T00:31:38.762Z,18.57
2018-07-11T00:32:38.726Z,18.59
2018-07-11T00:33:38.732Z,18.6
2018-07-11T00:34:38.758Z,18.6
2018-07-11T00:35:38.752Z,18.57
2018-07-11T00:36:38.727Z,18.61
2018-07-11T00:37:38.767Z,18.57
2018-07-11T00:38:38.892Z,18.56
2018-07-11T00:39:38.811Z,18.53
2018-07-11T00:40:38.714Z,18.5
2018-07-11T00:41:38.880Z,18.47
2018-07-11T00:42:38.878Z,18.46
2018-07-11T00:43:38.713Z,18.43
2018-07-11T00:44:38.742Z,18.46
2018-07-11T00:45:38.898Z,18.44
2018-07-11T00:46:38.753Z,18.37
2018-07-11T00:47:38.730Z,18.37
2018-07-11T00:48:38.753Z,18.39
2018-07-11T00:49:39.037Z,18.42
2018-07-11T00:50:39.042Z,18.43
2018-07-11T00:51:38.715Z,18.4
2018-07-11T00:52:38.853Z,18.37
2018-07-11T00:53:38.763Z,18.43
2018-07-11T00:54:38.722Z,18.47
2018-07-11T00:55:38.772Z,18.42
2018-07-11T00:56:38.739Z,18.44
2018-07-11T00:57:38.721Z,18.43
2018-07-11T00:58:38.720Z,18.46
2018-07-11T00:59:38.711Z,18.42
2018-07-11T01:00:38.789Z,18.43
2018-07-11T01:01:38.914Z,18.43
2018-07-11T01:02:38.770Z,18.43
2018-07-11T01:03:38.728Z,18.36
2018-07-11T01:04:38.745Z,18.33
2018-07-11T01:05:38.732Z,18.27
2018-07-11T01:06:38.813Z,18.29
2018-07-11T01:07:38.746Z,18.27
2018-07-11T01:08:38.728Z,18.27
2018-07-11T01:09:38.723Z,18.27
2018-07-11T01:10:38.732Z,18.27
2018-07-11T01:11:38.742Z,18.3
2018-07-11T01:12:38.719Z,18.3
2018-07-11T01:13:38.745Z,18.29
2018-07-11T01:14:38.726Z,18.26
2018-07-11T01:15:38.740Z,18.26
2018-07-11T01:16:38.741Z,18.2
2018-07-11T01:17:38.755Z,18.16
2018-07-11T01:18:38.738Z,18.16
2018-07-11T01:19:38.789Z,18.15
2018-07-11T01:20:38.763Z,18.17
2018-07-11T01:21:38.735Z,18.19
2018-07-11T01:22:38.738Z,18.2
2018-07-11T01:23:38.773Z,18.2
2018-07-11T01:24:38.778Z,18.22
2018-07-11T01:25:38.761Z,18.22
2018-07-11T01:26:38.727Z,18.25
2018-07-11T01:27:38.736Z,18.26
2018-07-11T01:28:38.729Z,18.27
2018-07-11T01:29:38.722Z,18.3
2018-07-11T01:30:38.744Z,18.27
2018-07-11T01:31:38.765Z,18.3
2018-07-11T01:32:38.737Z,18.33
2018-07-11T01:33:38.749Z,18.32
2018-07-11T01:34:38.756Z,18.32
2018-07-11T01:35:38.752Z,18.33
2018-07-11T01:36:38.740Z,18.32
2018-07-11T01:37:38.804Z,18.32
2018-07-11T01:38:38.793Z,18.32
2018-07-11T01:39:38.822Z,18.29
2018-07-11T01:40:38.764Z,18.27
2018-07-11T01:41:38.777Z,18.19
2018-07-11T01:42:38.783Z,18.2
2018-07-11T01:43:38.762Z,18.17
2018-07-11T01:44:38.769Z,18.2
2018-07-11T01:45:38.830Z,18.22
2018-07-11T01:46:38.734Z,18.15
2018-07-11T01:47:38.742Z,18.15
2018-07-11T01:48:38.793Z,18.11
2018-07-11T01:49:39.213Z,18.12
2018-07-11T01:50:38.790Z,18.04
2018-07-11T01:51:38.915Z,17.95
2018-07-11T01:52:38.758Z,17.97
2018-07-11T01:53:38.779Z,17.97
2018-07-11T01:54:38.826Z,17.99
2018-07-11T01:55:38.804Z,18.01
2018-07-11T01:56:38.773Z,18.01
2018-07-11T01:57:38.766Z,17.99
2018-07-11T01:58:38.791Z,17.99
2018-07-11T01:59:38.748Z,18.01
2018-07-11T02:00:38.751Z,17.99
2018-07-11T02:01:38.769Z,17.99
2018-07-11T02:02:38.764Z,18.01
2018-07-11T02:03:38.927Z,17.98
2018-07-11T02:04:38.757Z,17.95
2018-07-11T02:05:38.781Z,17.99
2018-07-11T02:06:38.804Z,18.01
2018-07-11T02:07:38.787Z,18.02
2018-07-11T02:08:38.794Z,18.04
2018-07-11T02:09:38.828Z,17.98
2018-07-11T02:10:38.787Z,17.89
2018-07-11T02:11:38.835Z,17.92
2018-07-11T02:12:38.809Z,17.94
2018-07-11T02:13:39.001Z,17.94
2018-07-11T02:14:38.759Z,17.94
2018-07-11T02:15:38.769Z,17.91
2018-07-11T02:16:38.757Z,17.92
2018-07-11T02:17:38.787Z,17.87
2018-07-11T02:18:38.941Z,17.87
2018-07-11T02:19:38.768Z,17.89
2018-07-11T02:20:38.993Z,17.91
2018-07-11T02:21:38.908Z,17.92
2018-07-11T02:22:38.867Z,17.97
2018-07-11T02:23:38.794Z,17.95
2018-07-11T02:24:38.778Z,17.97
2018-07-11T02:25:38.806Z,17.98
2018-07-11T02:26:38.804Z,17.98
2018-07-11T02:27:38.796Z,17.97
2018-07-11T02:28:38.775Z,17.98
2018-07-11T02:29:38.778Z,17.99
2018-07-11T02:30:38.816Z,17.99
2018-07-11T02:31:38.808Z,17.76
2018-07-11T02:32:38.764Z,17.53
2018-07-11T02:33:38.781Z,17.63
2018-07-11T02:34:38.785Z,17.67
2018-07-11T02:35:38.782Z,17.61
2018-07-11T02:36:38.810Z,17.61
2018-07-11T02:37:38.850Z,17.61
2018-07-11T02:38:38.788Z,17.66
2018-07-11T02:39:38.795Z,17.67
2018-07-11T02:40:39.100Z,17.53
2018-07-11T02:41:38.804Z,17.5
2018-07-11T02:42:38.796Z,17.44
2018-07-11T02:43:38.816Z,17.49
2018-07-11T02:44:38.770Z,17.56
2018-07-11T02:45:38.817Z,17.52
2018-07-11T02:46:38.772Z,17.44
2018-07-11T02:47:38.802Z,17.47
2018-07-11T02:48:38.794Z,17.54
2018-07-11T02:49:38.977Z,17.49
2018-07-11T02:50:38.798Z,17.56
2018-07-11T02:51:38.811Z,17.57
2018-07-11T02:52:38.980Z,17.6
2018-07-11T02:53:38.809Z,17.63
2018-07-11T02:54:38.844Z,17.64
2018-07-11T02:55:38.823Z,17.61
2018-07-11T02:56:38.872Z,17.58
2018-07-11T02:57:38.848Z,17.63
2018-07-11T02:58:38.851Z,17.6
2018-07-11T02:59:38.819Z,17.57
2018-07-11T03:00:38.915Z,17.42
2018-07-11T03:01:38.974Z,17.39
2018-07-11T03:02:38.984Z,17.36
2018-07-11T03:03:40.082Z,17.3
2018-07-11T03:04:38.873Z,17.39
2018-07-11T03:05:38.844Z,17.44
2018-07-11T03:06:38.795Z,17.37
2018-07-11T03:07:38.838Z,17.36
2018-07-11T03:08:39.104Z,17.33
2018-07-11T03:09:38.846Z,17.29
2018-07-11T03:10:38.936Z,17.25
2018-07-11T03:11:38.819Z,17.21
2018-07-11T03:12:38.808Z,17.26
2018-07-11T03:13:38.939Z,17.23
2018-07-11T03:14:38.852Z,17.27
2018-07-11T03:15:38.960Z,17.16
2018-07-11T03:16:38.856Z,17.19
2018-07-11T03:17:38.862Z,17.19
2018-07-11T03:18:38.984Z,17.04
2018-07-11T03:19:38.844Z,17.02
2018-07-11T03:20:38.835Z,17.14
2018-07-11T03:21:38.856Z,17.19
2018-07-11T03:22:38.823Z,17.18
2018-07-11T03:23:38.813Z,17.21
2018-07-11T03:24:38.809Z,17.12
2018-07-11T03:25:38.978Z,16.95
2018-07-11T03:26:38.987Z,16.94
2018-07-11T03:27:38.815Z,17.04
2018-07-11T03:28:38.835Z,17.12
2018-07-11T03:29:38.825Z,17.09
2018-07-11T03:30:39.233Z,16.95
2018-07-11T03:31:38.844Z,16.99
2018-07-11T03:32:39.384Z,17.01
2018-07-11T03:33:38.831Z,17.02
2018-07-11T03:34:38.824Z,17.04
2018-07-11T03:35:38.947Z,16.97
2018-07-11T03:36:38.826Z,17.09
2018-07-11T03:37:38.821Z,17.14
2018-07-11T03:38:38.803Z,17.08
2018-07-11T03:39:38.844Z,17.04
2018-07-11T03:40:38.837Z,16.95
2018-07-11T03:41:38.827Z,16.87
2018-07-11T03:42:38.838Z,16.87
2018-07-11T03:43:38.876Z,16.9
2018-07-11T03:44:38.822Z,16.83
2018-07-11T03:45:38.834Z,16.84
2018-07-11T03:46:38.857Z,16.91
2018-07-11T03:47:38.849Z,16.84
2018-07-11T03:48:38.848Z,16.87
2018-07-11T03:49:38.901Z,16.84
2018-07-11T03:50:38.885Z,16.86
2018-07-11T03:51:38.829Z,16.67
2018-07-11T03:52:38.822Z,16.77
2018-07-11T03:53:38.942Z,16.77
2018-07-11T03:54:38.821Z,16.78
2018-07-11T03:55:38.890Z,16.84
2018-07-11T03:56:38.824Z,16.73
2018-07-11T03:57:38.814Z,16.78
2018-07-11T03:58:38.824Z,16.78
2018-07-11T03:59:38.982Z,16.71
2018-07-11T04:00:38.953Z,16.73
2018-07-11T04:01:38.971Z,16.78
2018-07-11T04:02:38.877Z,16.8
2018-07-11T04:03:38.904Z,16.75
2018-07-11T04:04:38.840Z,16.67
2018-07-11T04:05:38.833Z,16.71
2018-07-11T04:06:39.043Z,16.77
2018-07-11T04:07:38.835Z,16.74
2018-07-11T04:08:38.863Z,16.77
2018-07-11T04:09:38.892Z,16.7
2018-07-11T04:10:39.031Z,16.7
2018-07-11T04:11:39.252Z,16.66
2018-07-11T04:12:38.861Z,16.63
2018-07-11T04:13:38.881Z,16.46
2018-07-11T04:14:38.957Z,16.53
2018-07-11T04:15:38.995Z,16.53
2018-07-11T04:16:38.857Z,16.45
2018-07-11T04:17:39.255Z,16.52
2018-07-11T04:18:38.842Z,16.47
2018-07-11T04:19:38.958Z,16.52
2018-07-11T04:20:38.935Z,16.57
2018-07-11T04:21:38.895Z,16.46
2018-07-11T04:22:38.908Z,16.53
2018-07-11T04:23:38.966Z,16.54
2018-07-11T04:24:38.922Z,16.5
2018-07-11T04:25:38.903Z,16.54
2018-07-11T04:26:38.998Z,16.56
2018-07-11T04:27:39.250Z,16.56
2018-07-11T04:28:39.155Z,16.52
2018-07-11T04:29:38.984Z,16.57
2018-07-11T04:30:39.018Z,16.57
2018-07-11T04:31:38.899Z,16.56
2018-07-11T04:32:39.005Z,16.52
2018-07-11T04:33:39.002Z,16.5
2018-07-11T04:34:39.143Z,16.46
2018-07-11T04:35:39.001Z,16.45
2018-07-11T04:36:38.981Z,16.36
2018-07-11T04:37:39.077Z,16.32
2018-07-11T04:38:38.947Z,16.28
2018-07-11T04:39:39.745Z,16.36
2018-07-11T04:40:38.999Z,16.4
2018-07-11T04:41:38.836Z,16.4
2018-07-11T04:42:39.557Z,16.33
2018-07-11T04:43:38.950Z,16.29
2018-07-11T04:44:38.914Z,16.28
2018-07-11T04:45:38.988Z,16.26
2018-07-11T04:46:38.933Z,16.37
2018-07-11T04:47:38.909Z,16.33
2018-07-11T04:48:38.915Z,16.42
2018-07-11T04:49:38.946Z,16.43
2018-07-11T04:50:38.898Z,16.5
2018-07-11T04:51:38.865Z,16.53
2018-07-11T04:52:38.965Z,16.59
2018-07-11T04:53:38.866Z,16.66
2018-07-11T04:54:38.856Z,16.67
2018-07-11T04:55:38.864Z,16.73
2018-07-11T04:56:38.895Z,16.74
2018-07-11T04:57:38.901Z,16.86
2018-07-11T04:58:39.072Z,16.81
2018-07-11T04:59:38.874Z,16.67
2018-07-11T05:00:38.869Z,16.68
2018-07-11T05:01:40.143Z,16.73
2018-07-11T05:02:39.051Z,16.67
2018-07-11T05:03:38.895Z,16.43
2018-07-11T05:04:39.009Z,16.24
2018-07-11T05:05:38.866Z,16.29
2018-07-11T05:06:38.952Z,16.26
2018-07-11T05:07:38.906Z,16.25
2018-07-11T05:08:38.920Z,16.21
2018-07-11T05:09:38.895Z,16.19
2018-07-11T05:10:38.863Z,16.16
2018-07-11T05:11:38.863Z,16.12
2018-07-11T05:12:38.909Z,16.02
2018-07-11T05:13:38.915Z,16.09
2018-07-11T05:14:38.955Z,16.18
2018-07-11T05:15:38.966Z,16.16
2018-07-11T05:16:39.156Z,16.19
2018-07-11T05:17:39.002Z,16.09
2018-07-11T05:18:39.064Z,16.11
2018-07-11T05:19:38.944Z,16.12
2018-07-11T05:20:38.956Z,16.11
2018-07-11T05:21:38.898Z,16.15
2018-07-11T05:22:39.008Z,16.19
2018-07-11T05:23:39.021Z,16.21
2018-07-11T05:24:38.896Z,16.22
2018-07-11T05:25:38.987Z,16.26
2018-07-11T05:26:38.874Z,16.28
2018-07-11T05:27:39.322Z,16.35
2018-07-11T05:28:39.023Z,16.36
2018-07-11T05:29:38.912Z,16.19
2018-07-11T05:30:38.921Z,16.22
2018-07-11T05:31:38.952Z,16.22
2018-07-11T05:32:38.947Z,16.21
2018-07-11T05:33:39.037Z,16.22
2018-07-11T05:34:38.932Z,16.28
2018-07-11T05:35:39.023Z,16.22
2018-07-11T05:36:39.016Z,16.09
2018-07-11T05:37:38.923Z,16.11
2018-07-11T05:38:38.988Z,16.14
2018-07-11T05:39:38.964Z,16.18
2018-07-11T05:40:38.909Z,16.22
2018-07-11T05:41:39.052Z,16.21
2018-07-11T05:42:38.970Z,16.19
2018-07-11T05:43:39.188Z,16.22
2018-07-11T05:44:38.887Z,16.18
2018-07-11T05:45:38.900Z,16.24
2018-07-11T05:46:39.080Z,16.26
2018-07-11T05:47:38.884Z,16.24
2018-07-11T05:48:38.967Z,16.25
2018-07-11T05:49:38.897Z,16.25
2018-07-11T05:50:38.972Z,16.26
2018-07-11T05:51:38.958Z,16.31
2018-07-11T05:52:38.975Z,16.26
2018-07-11T05:53:38.996Z,16.29
2018-07-11T05:54:38.979Z,16.36
2018-07-11T05:55:39.038Z,16.35
2018-07-11T05:56:38.887Z,16.35
2018-07-11T05:57:38.908Z,16.33
2018-07-11T05:58:38.983Z,16.32
2018-07-11T05:59:39.212Z,16.31
2018-07-11T06:00:39.007Z,16.31
2018-07-11T06:01:39.091Z,16.32
2018-07-11T06:02:39.135Z,16.33
2018-07-11T06:03:39.201Z,16.19
2018-07-11T06:04:41.938Z,16.21
2018-07-11T06:05:38.926Z,16.15
2018-07-11T06:06:39.026Z,16.12
2018-07-11T06:07:39.121Z,15.91
2018-07-11T06:08:38.940Z,15.82
2018-07-11T06:09:38.973Z,15.88
2018-07-11T06:10:38.901Z,15.95
2018-07-11T06:11:39.644Z,15.94
2018-07-11T06:12:38.914Z,15.98
2018-07-11T06:13:39.292Z,15.9
2018-07-11T06:14:39.091Z,15.98
2018-07-11T06:15:38.925Z,15.97
2018-07-11T06:16:38.943Z,16.04
2018-07-11T06:17:38.954Z,16.07
2018-07-11T06:18:38.940Z,16.01
2018-07-11T06:19:38.961Z,15.98
2018-07-11T06:20:38.950Z,16.01
2018-07-11T06:21:38.967Z,15.98
2018-07-11T06:22:38.969Z,16.02
2018-07-11T06:23:38.957Z,16.09
2018-07-11T06:24:38.913Z,16.08
2018-07-11T06:25:38.947Z,16.01
2018-07-11T06:26:38.998Z,15.98
2018-07-11T06:27:38.897Z,15.95
2018-07-11T06:28:39.364Z,15.99
2018-07-11T06:29:38.932Z,16.04
2018-07-11T06:30:38.935Z,16.11
2018-07-11T06:31:38.994Z,16.09
2018-07-11T06:32:38.943Z,16.16
2018-07-11T06:33:41.520Z,16.18
2018-07-11T06:34:39.426Z,16.19
2018-07-11T06:35:38.945Z,16.24
2018-07-11T06:36:38.989Z,16.28
2018-07-11T06:37:38.980Z,16.31
2018-07-11T06:38:38.981Z,16.32
2018-07-11T06:39:39.749Z,16.32
2018-07-11T06:40:38.972Z,16.29
2018-07-11T06:41:39.048Z,16.29
2018-07-11T06:42:43.501Z,16.28
2018-07-11T06:43:38.991Z,16.28
2018-07-11T06:44:38.984Z,16.19
2018-07-11T06:45:38.956Z,16.25
2018-07-11T06:46:39.133Z,16.21
2018-07-11T06:47:39.089Z,16.21
2018-07-11T06:48:38.923Z,16.22
2018-07-11T06:49:39.043Z,16.21
2018-07-11T06:50:38.987Z,16.22
2018-07-11T06:51:39.143Z,16.32
2018-07-11T06:52:38.975Z,16.37
2018-07-11T06:53:38.978Z,16.35
2018-07-11T06:54:38.971Z,16.29
2018-07-11T06:55:38.994Z,16.26
2018-07-11T06:56:38.972Z,16.16
2018-07-11T06:57:39.170Z,16.18
2018-07-11T06:58:38.982Z,16.19
2018-07-11T06:59:38.959Z,16.21
2018-07-11T07:00:38.973Z,16.24
2018-07-11T07:01:39.026Z,16.28
2018-07-11T07:02:38.962Z,16.32
2018-07-11T07:03:39.445Z,16.31
2018-07-11T07:04:38.955Z,16.37
2018-07-11T07:05:38.953Z,16.37
2018-07-11T07:06:39.041Z,16.42
2018-07-11T07:07:38.975Z,16.43
2018-07-11T07:08:39.002Z,16.37
2018-07-11T07:09:38.967Z,16.46
2018-07-11T07:10:39.033Z,16.5
2018-07-11T07:11:39.298Z,16.47
2018-07-11T07:12:39.096Z,16.37
2018-07-11T07:13:39.109Z,16.45
2018-07-11T07:14:38.944Z,16.47
2018-07-11T07:15:38.942Z,16.57
2018-07-11T07:16:39.177Z,16.59
2018-07-11T07:17:38.971Z,16.6
2018-07-11T07:18:38.938Z,16.39
2018-07-11T07:19:38.983Z,16.46
2018-07-11T07:20:39.062Z,16.5
2018-07-11T07:21:38.957Z,16.54
2018-07-11T07:22:39.145Z,16.57
2018-07-11T07:23:38.966Z,16.59
2018-07-11T07:24:38.990Z,16.64
2018-07-11T07:25:39.060Z,16.71
2018-07-11T07:26:38.940Z,16.78
2018-07-11T07:27:39.118Z,16.83
2018-07-11T07:28:39.018Z,16.84
2018-07-11T07:29:38.985Z,16.95
2018-07-11T07:30:38.948Z,17.02
2018-07-11T07:31:38.971Z,16.83
2018-07-11T07:32:38.945Z,16.88
2018-07-11T07:33:38.942Z,16.92
2018-07-11T07:34:39.080Z,16.88
2018-07-11T07:35:38.980Z,16.81
2018-07-11T07:36:39.018Z,16.84
2018-07-11T07:37:38.952Z,16.94
2018-07-11T07:38:38.953Z,16.92
2018-07-11T07:39:38.966Z,16.98
2018-07-11T07:40:38.974Z,16.81
2018-07-11T07:41:38.968Z,16.84
2018-07-11T07:42:38.952Z,16.81
2018-07-11T07:43:38.982Z,16.81
2018-07-11T07:44:38.959Z,16.87
2018-07-11T07:45:38.972Z,16.97
2018-07-11T07:46:38.965Z,17.01
2018-07-11T07:47:38.975Z,17.04
2018-07-11T07:48:38.934Z,17.09
2018-07-11T07:49:38.980Z,17.15
2018-07-11T07:50:38.973Z,17.16
2018-07-11T07:51:39.010Z,17.07
2018-07-11T07:52:38.964Z,17.05
2018-07-11T07:53:38.955Z,17.02
2018-07-11T07:54:38.989Z,17.04
2018-07-11T07:55:38.984Z,16.97
2018-07-11T07:56:39.036Z,17.01
2018-07-11T07:57:39.075Z,16.81
2018-07-11T07:58:39.032Z,16.9
2018-07-11T07:59:39.191Z,16.97
2018-07-11T08:00:39.058Z,16.97
2018-07-11T08:01:39.003Z,16.97
2018-07-11T08:02:39.002Z,16.98
2018-07-11T08:03:38.965Z,17.05
2018-07-11T08:04:39.215Z,17.04
2018-07-11T08:05:39.027Z,17.07
2018-07-11T08:06:39.084Z,17.11
2018-07-11T08:07:38.959Z,17.14
2018-07-11T08:08:38.963Z,17.01
2018-07-11T08:09:38.989Z,17.02
2018-07-11T08:10:39.002Z,17.12
2018-07-11T08:11:39.029Z,17.12
2018-07-11T08:12:39.193Z,17.19
2018-07-11T08:13:38.992Z,17.11
2018-07-11T08:14:39.046Z,16.98
2018-07-11T08:15:38.969Z,17.01
2018-07-11T08:16:39.008Z,17.12
2018-07-11T08:17:39.022Z,17.11
2018-07-11T08:18:39.027Z,17.15
2018-07-11T08:19:38.969Z,17.21
2018-07-11T08:20:38.992Z,17.25
2018-07-11T08:21:38.965Z,17.35
2018-07-11T08:22:38.986Z,17.27
2018-07-11T08:23:39.027Z,17.29
2018-07-11T08:24:38.974Z,17.22
2018-07-11T08:25:38.975Z,17.12
2018-07-11T08:26:39.007Z,17.04
2018-07-11T08:27:38.982Z,17.14
2018-07-11T08:28:39.013Z,17.09
2018-07-11T08:29:39.283Z,17.16
2018-07-11T08:30:39.023Z,17.25
2018-07-11T08:31:38.989Z,17.29
2018-07-11T08:32:39.018Z,17.32
2018-07-11T08:33:38.994Z,17.36
2018-07-11T08:34:39.271Z,17.35
2018-07-11T08:35:39.021Z,17.4
2018-07-11T08:36:38.983Z,17.44
2018-07-11T08:37:39.049Z,17.42
2018-07-11T08:38:39.637Z,17.33
2018-07-11T08:39:38.992Z,17.39
2018-07-11T08:40:38.989Z,17.35
2018-07-11T08:41:39.148Z,17.25
2018-07-11T08:42:39.155Z,17.35
2018-07-11T08:43:39.033Z,17.35
2018-07-11T08:44:38.990Z,17.37
2018-07-11T08:45:38.991Z,17.36
2018-07-11T08:46:39.238Z,17.37
2018-07-11T08:47:39.211Z,17.37
2018-07-11T08:48:39.013Z,17.36
2018-07-11T08:49:38.993Z,17.3
2018-07-11T08:50:39.012Z,17.33
2018-07-11T08:51:39.022Z,17.35
2018-07-11T08:52:39.014Z,17.39
2018-07-11T08:53:39.057Z,17.35
2018-07-11T08:54:38.986Z,17.32
2018-07-11T08:55:39.084Z,17.29
2018-07-11T08:56:38.996Z,17.29
2018-07-11T08:57:39.015Z,17.3
2018-07-11T08:58:39.093Z,17.37
2018-07-11T08:59:39.018Z,17.37
2018-07-11T09:00:39.002Z,17.42
2018-07-11T09:01:39.004Z,17.43
2018-07-11T09:02:39.198Z,17.4
2018-07-11T09:03:39.047Z,17.46
2018-07-11T09:04:39.330Z,17.29
2018-07-11T09:05:39.049Z,17.3
2018-07-11T09:06:39.033Z,17.33
2018-07-11T09:07:39.136Z,17.39
2018-07-11T09:08:39.341Z,17.43
2018-07-11T09:09:39.047Z,17.43
2018-07-11T09:10:39.409Z,17.4
2018-07-11T09:11:39.035Z,17.29
2018-07-11T09:12:39.015Z,17.23
2018-07-11T09:13:39.034Z,17.16
2018-07-11T09:14:39.089Z,17.21
2018-07-11T09:15:39.016Z,17.27
2018-07-11T09:16:39.105Z,17.33
2018-07-11T09:17:39.041Z,17.35
2018-07-11T09:18:39.080Z,17.43
2018-07-11T09:19:39.041Z,17.47
2018-07-11T09:20:39.035Z,17.5
2018-07-11T09:21:39.011Z,17.53
2018-07-11T09:22:39.211Z,17.56
2018-07-11T09:23:39.185Z,17.6
2018-07-11T09:24:39.100Z,17.58
2018-07-11T09:25:39.012Z,17.61
2018-07-11T09:26:39.049Z,17.6
2018-07-11T09:27:39.007Z,17.61
2018-07-11T09:28:39.009Z,17.6
2018-07-11T09:29:39.593Z,17.6
2018-07-11T09:30:39.444Z,17.61
2018-07-11T09:31:39.178Z,17.64
2018-07-11T09:32:39.042Z,17.66
2018-07-11T09:33:39.121Z,17.63
2018-07-11T09:34:39.078Z,17.57
2018-07-11T09:35:39.012Z,17.57
2018-07-11T09:36:39.121Z,17.56
2018-07-11T09:37:39.216Z,17.47
2018-07-11T09:38:39.043Z,17.5
2018-07-11T09:39:39.023Z,17.44
2018-07-11T09:40:39.199Z,17.49
2018-07-11T09:41:39.017Z,17.46
2018-07-11T09:42:39.038Z,17.5
2018-07-11T09:43:39.042Z,17.43
2018-07-11T09:44:39.042Z,17.47
2018-07-11T09:45:39.624Z,17.46
2018-07-11T09:46:39.174Z,17.47
2018-07-11T09:47:39.157Z,17.53
2018-07-11T09:48:39.251Z,17.53
2018-07-11T09:49:39.099Z,17.5
2018-07-11T09:50:39.061Z,17.54
2018-07-11T09:51:39.249Z,17.44
2018-07-11T09:52:39.023Z,17.4
2018-07-11T09:53:39.083Z,17.47
2018-07-11T09:54:39.091Z,17.5
2018-07-11T09:55:39.035Z,17.53
2018-07-11T09:56:39.033Z,17.52
2018-07-11T09:57:39.247Z,17.5
2018-07-11T09:58:39.020Z,17.46
2018-07-11T09:59:39.030Z,17.5
2018-07-11T10:00:39.106Z,17.52
2018-07-11T10:01:39.081Z,17.53
2018-07-11T10:02:39.029Z,17.46
2018-07-11T10:03:39.196Z,17.44
2018-07-11T10:04:39.056Z,17.47
2018-07-11T10:05:39.039Z,17.5
2018-07-11T10:06:40.165Z,17.46
2018-07-11T10:07:39.084Z,17.39
2018-07-11T10:08:39.067Z,17.44
2018-07-11T10:09:39.034Z,17.39
2018-07-11T10:10:39.050Z,17.43
2018-07-11T10:11:39.106Z,17.36
2018-07-11T10:12:39.536Z,17.46
2018-07-11T10:13:39.034Z,17.44
2018-07-11T10:14:39.053Z,17.42
2018-07-11T10:15:39.038Z,17.46
2018-07-11T10:16:39.035Z,17.43
2018-07-11T10:17:39.238Z,17.49
2018-07-11T10:18:39.050Z,17.5
2018-07-11T10:19:39.058Z,17.5
2018-07-11T10:20:39.064Z,17.44
2018-07-11T10:21:39.367Z,17.53
2018-07-11T10:22:39.222Z,17.52
2018-07-11T10:23:39.089Z,17.54
2018-07-11T10:24:39.053Z,17.54
2018-07-11T10:25:39.168Z,17.56
2018-07-11T10:26:39.120Z,17.57
2018-07-11T10:27:39.043Z,17.6
2018-07-11T10:28:39.198Z,17.66
2018-07-11T10:29:39.096Z,17.63
2018-07-11T10:30:39.051Z,17.6
2018-07-11T10:31:39.068Z,17.6
2018-07-11T10:32:39.090Z,17.61
2018-07-11T10:33:39.251Z,17.63
2018-07-11T10:34:39.059Z,17.66
2018-07-11T10:35:39.162Z,17.71
2018-07-11T10:36:39.073Z,17.73
2018-07-11T10:37:39.080Z,17.73
2018-07-11T10:38:39.124Z,17.74
2018-07-11T10:39:39.220Z,17.81
2018-07-11T10:40:39.130Z,17.85
2018-07-11T10:41:39.161Z,17.87
2018-07-11T10:42:39.093Z,17.91
2018-07-11T10:43:39.255Z,17.91
2018-07-11T10:44:39.077Z,17.94
2018-07-11T10:45:39.141Z,17.98
2018-07-11T10:46:39.134Z,18.02
2018-07-11T10:47:39.119Z,18.09
2018-07-11T10:48:39.071Z,18.17
2018-07-11T10:49:39.273Z,18.3
2018-07-11T10:50:39.273Z,18.26
2018-07-11T10:51:39.126Z,18.22
2018-07-11T10:52:39.177Z,18.26
2018-07-11T10:53:39.233Z,18.39
2018-07-11T10:54:39.076Z,18.44
2018-07-11T10:55:39.095Z,18.47
2018-07-11T10:56:39.078Z,18.5
2018-07-11T10:57:39.481Z,18.59
2018-07-11T10:58:39.129Z,18.63
2018-07-11T10:59:39.123Z,18.67
2018-07-11T11:00:39.367Z,18.57
2018-07-11T11:01:39.100Z,18.5
2018-07-11T11:02:39.314Z,18.54
2018-07-11T11:03:39.097Z,18.63
2018-07-11T11:04:39.106Z,18.6
2018-07-11T11:05:39.249Z,18.56
2018-07-11T11:06:39.165Z,18.59
2018-07-11T11:07:39.109Z,18.66
2018-07-11T11:08:39.128Z,18.66
2018-07-11T11:09:39.159Z,18.77
2018-07-11T11:10:39.089Z,18.81
2018-07-11T11:11:39.066Z,18.78
2018-07-11T11:12:39.124Z,18.78
2018-07-11T11:13:39.100Z,18.74
2018-07-11T11:14:39.294Z,18.77
2018-07-11T11:15:39.122Z,18.82
2018-07-11T11:16:39.119Z,18.97
2018-07-11T11:17:39.101Z,19.05
2018-07-11T11:18:39.082Z,19.08
2018-07-11T11:19:39.101Z,19.17
2018-07-11T11:20:39.118Z,19.27
2018-07-11T11:21:39.113Z,19.37
2018-07-11T11:22:39.108Z,19.4
2018-07-11T11:23:39.087Z,19.46
2018-07-11T11:24:39.107Z,19.47
2018-07-11T11:25:39.227Z,19.56
2018-07-11T11:26:39.114Z,19.64
2018-07-11T11:27:39.145Z,19.75
2018-07-11T11:28:39.163Z,19.79
2018-07-11T11:29:39.138Z,19.68
2018-07-11T11:30:39.108Z,19.68
2018-07-11T11:31:39.147Z,19.67
2018-07-11T11:32:39.310Z,19.6
2018-07-11T11:33:39.132Z,19.7
2018-07-11T11:34:39.092Z,19.79
2018-07-11T11:35:39.333Z,19.85
2018-07-11T11:36:39.280Z,20.05
2018-07-11T11:37:39.140Z,20.13
2018-07-11T11:38:39.103Z,20.23
2018-07-11T11:39:39.145Z,20.12
2018-07-11T11:40:39.107Z,20.11
2018-07-11T11:41:39.674Z,20.11
2018-07-11T11:42:39.834Z,19.95
2018-07-11T11:43:39.145Z,19.98
2018-07-11T11:44:39.125Z,19.99
2018-07-11T11:45:39.140Z,19.99
2018-07-11T11:46:39.163Z,19.99
2018-07-11T11:47:39.156Z,19.95
2018-07-11T11:48:39.132Z,20.01
2018-07-11T11:49:39.126Z,19.96
2018-07-11T11:50:39.135Z,19.91
2018-07-11T11:51:39.218Z,19.82
2018-07-11T11:52:39.221Z,19.72
2018-07-11T11:53:39.143Z,19.67
2018-07-11T11:54:39.147Z,19.64
2018-07-11T11:55:39.120Z,19.51
2018-07-11T11:56:39.104Z,19.53
2018-07-11T11:57:39.131Z,19.49
2018-07-11T11:58:39.327Z,19.46
2018-07-11T11:59:39.130Z,19.49
2018-07-11T12:00:39.216Z,19.25
2018-07-11T12:01:39.245Z,19.3
2018-07-11T12:02:39.197Z,19.34
2018-07-11T12:03:39.106Z,19.44
2018-07-11T12:04:39.131Z,19.43
2018-07-11T12:05:39.138Z,19.37
2018-07-11T12:06:39.295Z,19.43
2018-07-11T12:07:39.190Z,19.47
2018-07-11T12:08:39.104Z,19.56
2018-07-11T12:09:39.212Z,19.43
2018-07-11T12:10:39.112Z,19.64
2018-07-11T12:11:39.821Z,19.89
2018-07-11T12:12:39.148Z,19.79
2018-07-11T12:13:39.242Z,19.99
2018-07-11T12:14:39.279Z,20.09
2018-07-11T12:15:39.124Z,20.04
2018-07-11T12:16:39.318Z,20.17
2018-07-11T12:17:39.151Z,20.26
2018-07-11T12:18:39.212Z,20.26
2018-07-11T12:19:39.144Z,20.24
2018-07-11T12:20:39.120Z,20.27
2018-07-11T12:21:39.129Z,20.36
2018-07-11T12:22:39.122Z,20.43
2018-07-11T12:23:40.800Z,20.5
2018-07-11T12:24:39.258Z,20.64
2018-07-11T12:25:39.120Z,20.67
2018-07-11T12:26:39.130Z,20.75
2018-07-11T12:27:39.132Z,20.82
2018-07-11T12:28:39.128Z,20.77
2018-07-11T12:29:39.142Z,20.87
2018-07-11T12:30:39.192Z,20.91
2018-07-11T12:31:39.153Z,21.01
2018-07-11T12:32:39.135Z,21.06
2018-07-11T12:33:39.541Z,21.22
2018-07-11T12:34:39.179Z,21.29
2018-07-11T12:35:39.183Z,21.32
2018-07-11T12:36:39.168Z,21.26
2018-07-11T12:37:39.212Z,21.07
2018-07-11T12:38:39.190Z,20.94
2018-07-11T12:39:39.218Z,20.82
2018-07-11T12:40:39.236Z,20.77
2018-07-11T12:41:39.232Z,20.77
2018-07-11T12:42:39.216Z,20.65
2018-07-11T12:43:39.473Z,20.68
2018-07-11T12:44:39.602Z,20.57
2018-07-11T12:45:39.362Z,20.7
2018-07-11T12:46:39.372Z,20.77
2018-07-11T12:47:39.197Z,20.88
2018-07-11T12:48:39.209Z,21.01
2018-07-11T12:49:39.224Z,21.09
2018-07-11T12:50:39.271Z,21.06
2018-07-11T12:51:39.207Z,21.22
2018-07-11T12:52:39.271Z,21.29
2018-07-11T12:53:39.207Z,21.37
2018-07-11T12:54:39.215Z,21.44